Time;durP1;ratioP1;P1;durP2;ratioP2;P2;SDS_P1;SDS_P2;PMS_P1;PMS_P2;Temp;Humidity;BMP_temperature;BMP_pressure;BME280_temperature;BME280_humidity;BME280_pressure;Samples;Min_cycle;Max_cycle;Signal;HPM_P1;HPM_P2
2023/08/05 00:00:13;;;;;;;12.50;10.02;;;716.80;2432.00;;;;;;5096953;28;20115;-81
2023/08/05 00:02:39;;;;;;;12.15;10.20;;;716.80;2432.00;;;;;;5096732;28;20024;-81
2023/08/05 00:05:06;;;;;;;13.45;10.07;;;717.00;2432.00;;;;;;5096557;28;20028;-83
2023/08/05 00:07:32;;;;;;;10.68;9.57;;;716.90;2432.00;;;;;;5096591;28;20032;-83
2023/08/05 00:09:58;;;;;;;11.60;9.00;;;717.10;2432.00;;;;;;5096681;28;20452;-84
2023/08/05 00:12:24;;;;;;;11.57;9.77;;;717.10;2432.00;;;;;;5085278;28;20025;-84
2023/08/05 00:14:50;;;;;;;11.02;9.70;;;717.20;2432.00;;;;;;5076632;28;20052;-83
2023/08/05 00:17:15;;;;;;;10.98;9.38;;;717.20;2432.00;;;;;;5076067;28;20108;-82
2023/08/05 00:19:44;;;;;;;14.27;9.40;;;717.20;2432.00;;;;;;5075951;28;20031;-84
2023/08/05 00:22:10;;;;;;;12.00;10.48;;;717.20;2432.00;;;;;;5076199;28;20029;-82
2023/08/05 00:24:37;;;;;;;14.48;10.60;;;717.20;2432.00;;;;;;5076098;28;20024;-83
2023/08/05 00:27:03;;;;;;;18.65;11.45;;;717.20;2432.00;;;;;;5075920;28;20029;-85
2023/08/05 00:29:30;;;;;;;14.50;11.73;;;717.10;2432.00;;;;;;5076069;28;20036;-81
2023/08/05 00:31:56;;;;;;;11.65;9.63;;;717.10;2432.00;;;;;;5076345;28;20025;-81
2023/08/05 00:34:22;;;;;;;11.63;10.02;;;717.10;2432.00;;;;;;5076244;28;20101;-83
2023/08/05 00:36:48;;;;;;;11.30;9.55;;;717.10;2432.00;;;;;;5077159;28;20052;-83
2023/08/05 00:39:14;;;;;;;10.55;9.40;;;716.90;2432.00;;;;;;5075900;28;20036;-84
2023/08/05 00:41:40;;;;;;;14.38;9.68;;;717.10;2432.00;;;;;;5075722;28;20480;-83
2023/08/05 00:44:05;;;;;;;13.57;9.30;;;717.10;2432.00;;;;;;5075655;28;20025;-83
2023/08/05 00:46:32;;;;;;;10.43;8.32;;;717.20;2432.00;;;;;;5076894;28;20028;-82
2023/08/05 00:48:57;;;;;;;10.77;7.78;;;717.20;2432.00;;;;;;5076810;28;20020;-84
2023/08/05 00:51:25;;;;;;;11.35;8.82;;;717.30;2432.00;;;;;;5090501;28;20035;-81
2023/08/05 00:53:51;;;;;;;9.30;7.72;;;717.40;2432.00;;;;;;5095298;28;20028;-83
2023/08/05 00:56:17;;;;;;;11.90;8.50;;;717.40;2432.00;;;;;;5091594;28;20418;-84
2023/08/05 00:58:44;;;;;;;10.05;7.93;;;717.40;2432.00;;;;;;5090753;28;20040;-87
2023/08/05 01:01:10;;;;;;;8.45;7.53;;;717.30;2432.00;;;;;;5095372;28;20428;-83
2023/08/05 01:03:36;;;;;;;12.00;10.80;;;717.50;2432.00;;;;;;5095435;28;20523;-84
2023/08/05 01:06:07;;;;;;;13.23;10.20;;;717.50;2432.00;;;;;;5095409;28;20032;-82
2023/08/05 01:08:34;;;;;;;14.88;10.10;;;717.50;2432.00;;;;;;5094411;28;20020;-82
2023/08/05 01:11:03;;;;;;;8.77;7.72;;;717.50;2432.00;;;;;;5095290;28;20035;-83
2023/08/05 01:13:32;;;;;;;11.68;8.25;;;717.50;2432.00;;;;;;5095037;28;20093;-83
2023/08/05 01:15:58;;;;;;;11.70;7.35;;;717.50;2432.00;;;;;;5094905;28;20024;-82
2023/08/05 01:18:26;;;;;;;9.45;7.43;;;717.50;2432.00;;;;;;5095348;28;20039;-80
2023/08/05 01:20:54;;;;;;;10.00;7.78;;;717.50;2432.00;;;;;;5096445;28;20140;-83
2023/08/05 01:23:42;;;;;;;12.45;8.95;;;717.50;2432.00;;;;;;5095068;28;20028;-83
2023/08/05 01:26:10;;;;;;;11.13;8.77;;;717.30;2432.00;;;;;;5098941;28;20109;-83
2023/08/05 01:28:37;;;;;;;11.63;9.20;;;717.10;2432.00;;;;;;5098427;28;20068;-83
2023/08/05 01:31:04;;;;;;;14.25;9.10;;;717.00;2432.00;;;;;;5094774;28;20032;-84
2023/08/05 01:33:31;;;;;;;12.40;8.63;;;716.90;2432.00;;;;;;5095060;28;20058;-83
2023/08/05 01:35:57;;;;;;;13.02;10.15;;;692.10;2432.00;;;;;;5094806;28;20109;-83
2023/08/05 01:38:23;;;;;;;13.27;9.65;;;692.00;2432.00;;;;;;5096083;28;20678;-84
2023/08/05 01:40:49;;;;;;;10.48;9.48;;;691.80;2432.00;;;;;;5111941;28;20024;-84
2023/08/05 01:43:14;;;;;;;10.35;9.00;;;691.80;2432.00;;;;;;5094736;28;20479;-82
2023/08/05 01:45:40;;;;;;;12.43;9.20;;;691.80;2432.00;;;;;;5095979;28;20038;-85
2023/08/05 01:48:06;;;;;;;10.65;9.60;;;691.80;2432.00;;;;;;5094333;28;20032;-83
2023/08/05 01:50:33;;;;;;;11.20;8.90;;;691.80;2432.00;;;;;;5094539;28;20115;-80
2023/08/05 01:52:58;;;;;;;13.20;9.77;;;691.80;2432.00;;;;;;5096080;28;20035;-80
2023/08/05 01:55:24;;;;;;;11.80;9.85;;;691.60;2432.00;;;;;;5094651;28;20545;-83
2023/08/05 01:57:50;;;;;;;10.65;9.25;;;691.40;2432.00;;;;;;5094342;28;20032;-82
2023/08/05 02:00:16;;;;;;;10.82;9.73;;;691.40;2432.00;;;;;;5094267;28;20479;-80
2023/08/05 02:02:42;;;;;;;11.75;9.77;;;691.50;2432.00;;;;;;5094475;28;20479;-81
2023/08/05 02:05:08;;;;;;;10.05;9.05;;;;;;;;;;5095443;28;20107;-83
2023/08/05 02:07:34;;;;;;;12.75;9.07;;;;;;;;;;5094185;28;20016;-81
2023/08/05 02:10:00;;;;;;;14.82;9.75;;;;;;;;;;5094394;28;20020;-83
2023/08/05 02:12:26;;;;;;;13.13;9.00;;;;;;;;;;5093966;28;20085;-81
2023/08/05 02:14:52;;;;;;;10.98;9.88;;;;;;;;;;5094061;28;20071;-82
2023/08/05 02:17:20;;;;;;;13.90;9.13;;;;;;;;;;5094161;28;20467;-81
2023/08/05 02:19:46;;;;;;;12.43;9.27;;;;;;;;;;5094108;28;20446;-83
2023/08/05 02:22:12;;;;;;;11.82;9.13;;;;;;;;;;5093970;28;20034;-80
2023/08/05 02:24:38;;;;;;;11.65;10.20;;;;;;;;;;5093993;28;20028;-81
2023/08/05 02:27:05;;;;;;;10.93;9.57;;;;;;;;;;5093806;28;20021;-85
2023/08/05 02:29:31;;;;;;;12.20;9.95;;;;;;;;;;5094126;28;20016;-85
2023/08/05 02:31:56;;;;;;;12.32;9.95;;;691.50;2432.00;;;;;;5094049;28;20027;-81
2023/08/05 02:34:22;;;;;;;10.75;9.65;;;691.40;2432.00;;;;;;5094104;28;20028;-82
2023/08/05 02:36:48;;;;;;;12.63;10.35;;;691.30;2432.00;;;;;;5093824;28;20028;-85
2023/08/05 02:39:14;;;;;;;14.27;10.25;;;691.20;2432.00;;;;;;5094845;28;20081;-81
2023/08/05 02:41:40;;;;;;;11.15;9.70;;;666.50;2432.00;;;;;;5093659;28;20020;-80
2023/08/05 02:44:06;;;;;;;13.30;9.88;;;666.50;2432.00;;;;;;5093790;28;20486;-81
2023/08/05 02:46:32;;;;;;;12.07;9.25;;;666.30;2432.00;;;;;;5093453;28;20035;-82
2023/08/05 02:48:57;;;;;;;16.30;10.73;;;666.30;2432.00;;;;;;5094835;28;20035;-79
2023/08/05 02:51:23;;;;;;;13.00;10.30;;;666.20;2432.00;;;;;;5093474;28;20471;-83
2023/08/05 02:53:49;;;;;;;12.85;9.48;;;666.30;2432.00;;;;;;5093673;28;20483;-82
2023/08/05 02:56:15;;;;;;;14.45;9.60;;;666.30;2432.00;;;;;;5094674;28;20032;-82
2023/08/05 02:58:40;;;;;;;10.13;8.70;;;666.40;2432.00;;;;;;5093572;28;20028;-83
2023/08/05 03:01:08;;;;;;;14.30;9.57;;;691.20;2432.00;;;;;;5094725;28;20020;-83
2023/08/05 03:03:37;;;;;;;11.57;9.20;;;691.30;2432.00;;;;;;5093482;28;20478;-82
2023/08/05 03:06:03;;;;;;;11.75;8.98;;;691.20;2432.00;;;;;;5093343;28;20032;-82
2023/08/05 03:08:29;;;;;;;12.02;8.85;;;691.30;2432.00;;;;;;5093362;28;20047;-81
2023/08/05 03:10:59;;;;;;;10.40;9.10;;;691.20;2432.00;;;;;;5093441;28;20028;-81
2023/08/05 03:13:25;;;;;;;10.30;9.13;;;691.20;2432.00;;;;;;5094194;28;20056;-81
2023/08/05 03:15:53;;;;;;;13.43;10.02;;;691.20;2432.00;;;;;;5094147;28;20031;-82
2023/08/05 03:18:20;;;;;;;17.17;10.18;;;691.20;2432.00;;;;;;5092768;28;20100;-80
2023/08/05 03:20:47;;;;;;;14.98;10.80;;;666.50;2432.00;;;;;;5093193;28;20503;-81
2023/08/05 03:23:12;;;;;;;15.02;9.80;;;666.30;2432.00;;;;;;5105203;28;20111;-81
2023/08/05 03:25:38;;;;;;;13.13;10.23;;;666.30;2432.00;;;;;;5106410;28;20040;-83
2023/08/05 03:28:04;;;;;;;13.57;10.20;;;666.20;2432.00;;;;;;5096488;28;20025;-81
2023/08/05 03:30:30;;;;;;;12.75;9.77;;;665.90;2432.00;;;;;;5093762;28;20032;-83
2023/08/05 03:32:55;;;;;;;15.07;10.93;;;665.90;2432.00;;;;;;5092967;28;20032;-83
2023/08/05 03:35:21;;;;;;;14.43;10.63;;;665.90;2432.00;;;;;;5093031;28;20032;-84
2023/08/05 03:37:47;;;;;;;13.85;10.10;;;665.90;2432.00;;;;;;5093165;28;20028;-81
2023/08/05 03:40:13;;;;;;;12.32;10.18;;;665.80;2432.00;;;;;;5093178;28;20067;-81
2023/08/05 03:42:40;;;;;;;17.73;10.90;;;665.80;2432.00;;;;;;5093086;28;20489;-82
2023/08/05 03:45:06;;;;;;;16.02;10.63;;;665.70;2432.00;;;;;;5093149;28;20384;-82
2023/08/05 03:47:33;;;;;;;11.88;10.60;;;665.80;2432.00;;;;;;5093582;28;20027;-83
2023/08/05 03:49:59;;;;;;;16.80;10.25;;;665.60;2432.00;;;;;;5093264;28;20456;-82
2023/08/05 03:52:26;;;;;;;11.80;10.32;;;640.90;2432.00;;;;;;5093295;28;20479;-82
2023/08/05 03:54:53;;;;;;;14.00;9.98;;;665.70;2432.00;;;;;;5092866;28;20029;-82
2023/08/05 03:57:19;;;;;;;14.32;10.02;;;665.80;2432.00;;;;;;5092982;28;20024;-85
2023/08/05 03:59:47;;;;;;;15.10;10.00;;;665.90;2432.00;;;;;;5092903;28;20111;-82
2023/08/05 04:02:12;;;;;;;12.10;9.63;;;665.80;2432.00;;;;;;5092940;28;20028;-81
2023/08/05 04:04:38;;;;;;;11.18;10.07;;;665.80;2432.00;;;;;;5092651;28;20028;-82
2023/08/05 04:07:04;;;;;;;10.55;9.45;;;665.80;2432.00;;;;;;5097503;28;20050;-82
2023/08/05 04:09:31;;;;;;;11.65;10.00;;;665.80;2432.00;;;;;;5096757;28;20024;-82
2023/08/05 04:12:01;;;;;;;16.23;10.18;;;665.90;2432.00;;;;;;5092557;28;20024;-83
2023/08/05 04:14:26;;;;;;;13.02;10.18;;;666.00;2432.00;;;;;;5092295;28;20496;-81
2023/08/05 04:16:54;;;;;;;13.52;10.57;;;665.80;2432.00;;;;;;5092444;28;20043;-83
2023/08/05 04:19:24;;;;;;;11.50;10.40;;;665.80;2432.00;;;;;;5092207;28;20035;-82
2023/08/05 04:21:52;;;;;;;18.38;10.88;;;665.70;2432.00;;;;;;5092756;28;20487;-82
2023/08/05 04:24:22;;;;;;;14.95;11.10;;;640.90;2432.00;;;;;;5092397;28;20364;-81
2023/08/05 04:26:50;;;;;;;13.77;11.07;;;640.90;2432.00;;;;;;5092507;28;20051;-82
2023/08/05 04:29:18;;;;;;;11.27;10.10;;;640.90;2432.00;;;;;;5093828;28;20043;-82
2023/08/05 04:31:45;;;;;;;13.27;11.07;;;640.80;2432.00;;;;;;5095969;28;20031;-83
2023/08/05 04:34:11;;;;;;;14.73;9.85;;;640.90;2432.00;;;;;;5096385;28;20024;-83
2023/08/05 04:36:37;;;;;;;11.10;9.35;;;665.60;2432.00;;;;;;5096038;28;20484;-83
2023/08/05 04:39:04;;;;;;;12.63;10.27;;;665.70;2432.00;;;;;;5096164;28;20579;-85
2023/08/05 04:41:30;;;;;;;11.05;9.85;;;640.90;2432.00;;;;;;5096101;28;20102;-84
2023/08/05 04:43:57;;;;;;;11.02;9.63;;;665.60;2432.00;;;;;;5097042;28;20104;-85
2023/08/05 04:46:22;;;;;;;12.90;9.15;;;665.60;2432.00;;;;;;5096124;28;20051;-83
2023/08/05 04:48:48;;;;;;;13.40;10.65;;;665.70;2432.00;;;;;;5096355;28;20028;-81
2023/08/05 04:51:14;;;;;;;12.85;9.88;;;665.80;2432.00;;;;;;5097286;28;20501;-81
2023/08/05 04:53:39;;;;;;;11.02;9.85;;;666.00;2432.00;;;;;;5097006;28;20460;-82
2023/08/05 04:56:05;;;;;;;10.85;9.50;;;666.10;2432.00;;;;;;5094961;28;20031;-84
2023/08/05 04:58:31;;;;;;;11.77;9.82;;;666.00;2432.00;;;;;;5095919;28;20032;-82
2023/08/05 05:00:57;;;;;;;13.45;10.55;;;666.10;2432.00;;;;;;5095524;28;20111;-82
2023/08/05 05:03:24;;;;;;;15.68;10.77;;;665.70;2432.00;;;;;;5095878;28;20052;-83
2023/08/05 05:05:50;;;;;;;12.85;10.32;;;666.10;2432.00;;;;;;5097069;28;20027;-83
2023/08/05 05:08:16;;;;;;;12.68;9.70;;;666.20;2432.00;;;;;;5095726;28;20329;-82
2023/08/05 05:10:48;;;;;;;13.07;10.32;;;666.10;2432.00;;;;;;5094705;28;20114;-85
2023/08/05 05:13:14;;;;;;;17.45;14.00;;;666.20;2432.00;;;;;;5074901;28;20392;-82
2023/08/05 05:15:40;;;;;;;13.18;10.65;;;666.20;2432.00;;;;;;5076680;28;20028;-81
2023/08/05 05:18:06;;;;;;;13.15;10.07;;;666.20;2432.00;;;;;;5075221;28;20101;-82
2023/08/05 05:20:31;;;;;;;12.40;10.52;;;666.30;2432.00;;;;;;5075974;28;20028;-81
2023/08/05 05:22:57;;;;;;;15.25;10.43;;;666.50;2432.00;;;;;;5076788;28;20372;-83
2023/08/05 05:25:23;;;;;;;13.35;10.00;;;691.20;2432.00;;;;;;5075237;28;20127;-84
2023/08/05 05:27:49;;;;;;;12.30;10.07;;;691.20;2432.00;;;;;;5074884;28;20032;-82
2023/08/05 05:30:15;;;;;;;18.00;10.25;;;691.30;2432.00;;;;;;5076400;28;20023;-83
2023/08/05 05:32:41;;;;;;;18.45;10.93;;;691.30;2432.00;;;;;;5075307;28;20112;-82
2023/08/05 05:35:07;;;;;;;14.70;10.02;;;691.40;2432.00;;;;;;5074837;28;20029;-83
2023/08/05 05:37:33;;;;;;;15.40;10.02;;;691.40;2432.00;;;;;;5075232;28;20036;-83
2023/08/05 05:39:59;;;;;;;17.15;10.00;;;691.40;2432.00;;;;;;5076379;28;20016;-84
2023/08/05 05:42:25;;;;;;;15.68;9.38;;;691.50;2432.00;;;;;;5074155;28;20028;-83
2023/08/05 05:44:52;;;;;;;11.85;9.93;;;691.60;2432.00;;;;;;5075028;28;20055;-84
2023/08/05 05:47:19;;;;;;;12.55;9.10;;;691.60;2432.00;;;;;;5074941;28;20382;-82
2023/08/05 05:49:46;;;;;;;11.75;8.73;;;691.60;2432.00;;;;;;5074267;28;20032;-84
2023/08/05 05:52:15;;;;;;;12.75;9.48;;;691.80;2432.00;;;;;;5074817;28;20028;-81
2023/08/05 05:54:41;;;;;;;12.25;9.07;;;691.90;2432.00;;;;;;5074398;28;20025;-80
2023/08/05 05:57:07;;;;;;;14.48;9.00;;;691.90;2432.00;;;;;;5074382;28;20127;-82
2023/08/05 05:59:33;;;;;;;13.68;9.63;;;692.00;2432.00;;;;;;5075995;28;20105;-83
2023/08/05 06:01:58;;;;;;;12.25;9.32;;;716.80;2432.00;;;;;;5074904;28;20024;-84
2023/08/05 06:04:28;;;;;;;11.48;9.40;;;716.90;2432.00;;;;;;5075432;28;20060;-85
2023/08/05 06:06:54;;;;;;;10.10;8.82;;;717.10;2432.00;;;;;;5086016;28;20032;-83
2023/08/05 06:09:20;;;;;;;13.05;9.70;;;717.20;2432.00;;;;;;5090558;28;20017;-82
2023/08/05 06:11:46;;;;;;;14.98;9.18;;;717.30;2432.00;;;;;;5086226;28;20024;-83
2023/08/05 06:14:12;;;;;;;10.50;8.60;;;717.50;2432.00;;;;;;5098588;28;20035;-81
2023/08/05 06:16:38;;;;;;;10.52;8.43;;;742.40;2432.00;;;;;;5087276;28;20444;-82
2023/08/05 06:19:04;;;;;;;9.73;7.95;;;742.50;2432.00;;;;;;5081119;28;20060;-83
2023/08/05 06:21:30;;;;;;;10.57;7.88;;;742.60;2432.00;;;;;;5075323;28;20047;-82
2023/08/05 06:23:56;;;;;;;12.25;7.70;;;742.50;2432.00;;;;;;5074231;28;20025;-84
2023/08/05 06:26:22;;;;;;;9.07;7.72;;;742.80;2432.00;;;;;;5075665;28;20070;-84
2023/08/05 06:28:47;;;;;;;9.70;8.50;;;742.90;2432.00;;;;;;5074546;28;20036;-84
2023/08/05 06:31:13;;;;;;;9.85;8.40;;;;;;;;;;5074084;28;20059;-82
2023/08/05 06:33:39;;;;;;;13.25;8.23;;;743.00;2432.00;;;;;;5074248;28;20021;-82
2023/08/05 06:36:05;;;;;;;8.70;7.80;;;743.00;2432.00;;;;;;5073627;28;20029;-88
2023/08/05 06:38:31;;;;;;;12.48;8.13;;;743.10;2432.00;;;;;;5073571;28;20028;-83
2023/08/05 06:40:56;;;;;;;7.95;7.15;;;743.20;2432.00;;;;;;5073881;28;20028;-86
2023/08/05 06:43:22;;;;;;;8.07;7.28;;;743.30;2406.40;;;;;;5073726;28;20119;-84
2023/08/05 06:45:48;;;;;;;10.75;7.90;;;768.00;2406.40;;;;;;5073536;28;20032;-85
2023/08/05 06:48:14;;;;;;;10.73;7.47;;;768.10;2380.80;;;;;;5078018;28;20029;-84
2023/08/05 06:50:40;;;;;;;10.57;7.10;;;768.30;2355.20;;;;;;5078267;28;20115;-83
2023/08/05 06:53:05;;;;;;;9.88;6.78;;;768.40;2329.60;;;;;;5072464;28;20059;-86
2023/08/05 06:55:31;;;;;;;9.10;7.40;;;768.40;2304.00;;;;;;5073130;28;20123;-85
2023/08/05 06:57:57;;;;;;;9.85;7.65;;;768.60;2304.00;;;;;;5085644;28;20039;-84
2023/08/05 07:00:23;;;;;;;10.32;6.97;;;768.60;2278.40;;;;;;5093363;28;20028;-86
2023/08/05 07:02:48;;;;;;;10.65;7.60;;;768.70;2278.40;;;;;;5093550;28;20464;-89
2023/08/05 07:05:14;;;;;;;9.20;7.35;;;768.90;2278.40;;;;;;5093507;28;20035;-82
2023/08/05 07:07:41;;;;;;;8.40;7.30;;;793.70;2304.00;;;;;;5093253;28;20028;-86
2023/08/05 07:10:11;;;;;;;10.57;6.88;;;793.70;2278.40;;;;;;5093248;28;20031;-85
2023/08/05 07:12:37;;;;;;;8.73;7.20;;;793.80;2252.80;;;;;;5076144;28;20040;-86
2023/08/05 07:15:04;;;;;;;7.95;6.93;;;793.80;2278.40;;;;;;5093087;28;20561;-84
2023/08/05 07:17:31;;;;;;;12.63;7.03;;;794.00;2252.80;;;;;;5093318;28;20120;-85
2023/08/05 07:19:56;;;;;;;9.55;6.68;;;794.10;2252.80;;;;;;5093833;28;20034;-83
2023/08/05 07:22:22;;;;;;;8.63;6.90;;;794.20;2227.20;;;;;;5093314;28;20028;-86
2023/08/05 07:24:48;;;;;;;11.25;6.78;;;794.20;2227.20;;;;;;5093148;28;20115;-84
2023/08/05 07:27:14;;;;;;;9.05;6.75;;;794.00;2201.60;;;;;;5094199;28;20031;-84
2023/08/05 07:29:43;;;;;;;8.48;6.90;;;;;;;;;;5093562;28;20024;-85
2023/08/05 07:32:09;;;;;;;9.18;6.85;;;;;;;;;;5094089;28;20095;-85
2023/08/05 07:34:35;;;;;;;8.50;6.97;;;819.30;2201.60;;;;;;5093198;28;20032;-85
2023/08/05 07:37:01;;;;;;;8.68;7.05;;;819.30;2176.00;;;;;;5093306;28;20078;-87
2023/08/05 07:39:33;;;;;;;9.27;7.07;;;819.70;2124.80;;;;;;5093150;28;20036;-88
2023/08/05 07:42:03;;;;;;;9.48;6.20;;;819.70;2124.80;;;;;;5093046;28;20043;-86
2023/08/05 07:44:31;;;;;;;10.20;8.10;;;819.70;2124.80;;;;;;5093236;28;20028;-86
2023/08/05 07:47:00;;;;;;;8.90;7.53;;;819.80;2099.20;;;;;;5092777;28;20035;-85
2023/08/05 07:49:27;;;;;;;9.43;5.80;;;819.90;2073.60;;;;;;5093041;28;20519;-84
2023/08/05 07:51:53;;;;;;;7.78;6.20;;;819.80;2048.00;;;;;;5092961;28;20442;-83
2023/08/05 07:54:24;;;;;;;7.95;6.82;;;819.80;2048.00;;;;;;5092760;28;20131;-84
2023/08/05 07:56:49;;;;;;;8.60;6.25;;;819.90;2022.40;;;;;;5093433;28;20028;-86
2023/08/05 07:59:17;;;;;;;9.80;6.93;;;844.90;2048.00;;;;;;5093164;28;20368;-86
2023/08/05 08:01:45;;;;;;;8.48;6.07;;;844.80;2022.40;;;;;;5093816;28;20074;-88
2023/08/05 08:04:13;;;;;;;10.25;5.95;;;;;;;;;;5095114;28;20028;-91
2023/08/05 08:06:39;;;;;;;8.70;6.18;;;;;;;;;;5097406;28;20371;-87
2023/08/05 08:09:05;;;;;;;13.30;5.82;;;845.20;1996.80;;;;;;5097327;28;20115;-89
2023/08/05 08:11:31;;;;;;;9.48;6.60;;;845.20;1996.80;;;;;;5090013;28;20448;-89
2023/08/05 08:13:57;;;;;;;10.05;6.07;;;845.10;1996.80;;;;;;5077350;28;20072;-88
2023/08/05 08:16:23;;;;;;;6.47;5.72;;;844.90;1920.00;;;;;;5077299;28;20032;-88
2023/08/05 08:18:49;;;;;;;9.13;6.03;;;845.00;1920.00;;;;;;5077468;28;20139;-91
2023/08/05 08:21:15;;;;;;;11.23;7.68;;;845.10;1894.40;;;;;;5077184;28;20032;-89
2023/08/05 08:23:40;;;;;;;8.40;5.82;;;845.30;1894.40;;;;;;5082755;28;20118;-89
2023/08/05 08:26:07;;;;;;;8.88;6.22;;;845.40;1894.40;;;;;;5097351;28;20111;-89
2023/08/05 08:28:33;;;;;;;9.15;6.13;;;845.40;1894.40;;;;;;5097347;28;20035;-90
2023/08/05 08:30:59;;;;;;;7.70;5.80;;;845.60;1843.20;;;;;;5097198;28;20028;-90
2023/08/05 08:33:25;;;;;;;8.38;6.15;;;845.60;1843.20;;;;;;5097302;28;20111;-87
2023/08/05 08:35:52;;;;;;;8.43;6.40;;;845.60;1843.20;;;;;;5096897;28;20034;-89
2023/08/05 08:38:19;;;;;;;6.97;5.85;;;845.60;1843.20;;;;;;5097293;28;20089;-88
2023/08/05 08:40:49;;;;;;;7.90;6.32;;;845.70;1868.80;;;;;;5096810;28;20035;-87
2023/08/05 08:43:19;;;;;;;11.63;6.60;;;870.50;1843.20;;;;;;5096797;28;20145;-88
2023/08/05 08:45:48;;;;;;;8.07;6.43;;;870.70;1868.80;;;;;;5081866;28;20036;-85
2023/08/05 08:48:15;;;;;;;8.32;6.18;;;870.80;1843.20;;;;;;5076215;28;20035;-87
2023/08/05 08:50:43;;;;;;;14.07;10.20;;;871.10;1843.20;;;;;;5076660;28;20060;-84
2023/08/05 08:53:11;;;;;;;7.40;5.85;;;871.10;1817.60;;;;;;5078134;28;20063;-83
2023/08/05 08:55:38;;;;;;;8.60;7.22;;;871.30;1817.60;;;;;;5075944;28;20028;-81
2023/08/05 08:58:05;;;;;;;9.88;6.13;;;871.30;1817.60;;;;;;5082466;28;20036;-82
2023/08/05 09:00:32;;;;;;;8.05;5.65;;;871.30;1792.00;;;;;;5097358;28;20028;-81
2023/08/05 09:03:02;;;;;;;7.65;5.70;;;;;;;;;;5096581;28;20020;-82
2023/08/05 09:05:41;;;;;;;9.07;7.50;;;871.10;1843.20;;;;;;5115608;28;20015;-83
2023/08/05 09:08:08;;;;;;;7.43;6.40;;;871.30;1868.80;;;;;;5105494;28;20039;-82
2023/08/05 09:10:34;;;;;;;10.90;7.75;;;871.30;1843.20;;;;;;5102143;28;20028;-83
2023/08/05 09:13:01;;;;;;;6.95;6.25;;;;;;;;;;5095345;28;20056;-84
2023/08/05 09:15:34;;;;;;;11.32;6.72;;;;;;;;;;5094566;28;20077;-86
2023/08/05 09:18:01;;;;;;;7.05;6.05;;;;;;;;;;5095255;28;20120;-85
2023/08/05 09:20:27;;;;;;;7.80;6.43;;;;;;;;;;5095223;28;20084;-84
2023/08/05 09:23:00;;;;;;;10.20;6.45;;;896.70;1817.60;;;;;;5095397;28;20442;-86
2023/08/05 09:25:30;;;;;;;8.48;6.40;;;896.80;1817.60;;;;;;5089816;28;20039;-84
2023/08/05 09:27:56;;;;;;;7.10;6.28;;;896.80;1792.00;;;;;;5100252;28;20104;-84
2023/08/05 09:30:24;;;;;;;8.13;5.60;;;896.90;1766.40;;;;;;5104663;28;20027;-83
2023/08/05 09:32:51;;;;;;;7.80;5.57;;;896.60;1766.40;;;;;;5095321;28;20020;-84
2023/08/05 09:35:17;;;;;;;7.13;5.75;;;921.80;1766.40;;;;;;5095163;28;20035;-84
2023/08/05 09:37:48;;;;;;;9.63;6.30;;;;;;;;;;5095239;28;20032;-85
2023/08/05 09:40:24;;;;;;;;;;;922.30;1766.40;;;;;;5095259;28;20077;-87
2023/08/05 09:42:51;;;;;;;7.13;6.38;;;;;;;;;;5095035;28;20002;-86
2023/08/05 09:45:18;;;;;;;6.93;5.82;;;;;;;;;;5095247;28;20024;-85
2023/08/05 09:47:47;;;;;;;7.40;5.47;;;;;;;;;;5094718;28;20024;-87
2023/08/05 09:50:14;;;;;;;9.95;6.68;;;;;;;;;;5096370;28;20016;-87
2023/08/05 09:52:40;;;;;;;8.68;6.15;;;;;;;;;;5095744;28;20020;-87
2023/08/05 09:55:14;;;;;;;7.88;6.35;;;;;;;;;;5094730;28;20027;-86
2023/08/05 09:57:41;;;;;;;10.93;6.30;;;;;;;;;;5094831;28;20028;-86
2023/08/05 10:00:08;;;;;;;9.77;7.05;;;;;;;;;;5094881;28;20020;-84
2023/08/05 10:02:41;;;;;;;11.63;6.35;;;;;;;;;;5094817;28;20483;-88
2023/08/05 10:05:09;;;;;;;13.30;6.47;;;;;;;;;;5094392;28;20028;-87
2023/08/05 10:07:36;;;;;;;8.75;5.65;;;;;;;;;;5095723;28;20020;-87
2023/08/05 10:10:06;;;;;;;7.45;6.40;;;;;;;;;;5094753;28;20609;-88
2023/08/05 10:12:55;;;;;;;8.98;6.20;;;;;;;;;;5090174;28;20032;-86
2023/08/05 10:15:23;;;;;;;7.35;5.78;;;;;;;;;;5063816;28;20040;-82
2023/08/05 10:17:50;;;;;;;7.03;5.95;;;;;;;;;;5079454;28;20460;-82
2023/08/05 10:20:16;;;;;;;7.53;5.35;;;;;;;;;;5075944;28;20029;-84
2023/08/05 10:22:59;;;;;;;14.57;6.03;;;;;;;;;;5091836;28;20021;-85
2023/08/05 10:25:45;;;;;;;7.10;5.50;;;;;;;;;;5091237;28;20058;-84
2023/08/05 10:28:33;;;;;;;7.20;5.68;;;947.30;1689.60;;;;;;5090660;28;20028;-84
2023/08/05 10:31:03;;;;;;;6.50;5.68;;;947.20;1664.00;;;;;;5090941;28;20495;-86
2023/08/05 10:33:29;;;;;;;10.13;6.55;;;947.40;1715.20;;;;;;5091430;28;20028;-86
2023/08/05 10:36:07;;;;;;;7.43;6.60;;;948.10;1689.60;;;;;;5090893;28;20108;-86
2023/08/05 10:38:43;;;;;;;9.57;8.55;;;973.00;1664.00;;;;;;5091041;28;20038;-86
2023/08/05 10:41:10;;;;;;;12.10;6.78;;;973.10;1664.00;;;;;;5091188;28;20028;-86
2023/08/05 10:43:41;;;;;;;8.80;6.10;;;973.20;1664.00;;;;;;5073842;28;20025;-86
2023/08/05 10:46:06;;;;;;;;;;;973.10;1715.20;;;;;;5091065;28;20593;-85
2023/08/05 10:48:40;;;;;;;7.93;5.60;;;972.80;1689.60;;;;;;5090426;28;19997;-85
2023/08/05 10:51:12;;;;;;;7.72;5.53;;;947.20;1689.60;;;;;;5093892;28;20032;-87
2023/08/05 10:53:39;;;;;;;13.05;6.90;;;922.20;1689.60;;;;;;5093753;28;20024;-86
2023/08/05 10:56:12;;;;;;;10.43;7.60;;;922.00;1715.20;;;;;;5093803;28;20476;-85
2023/08/05 10:58:43;;;;;;;7.60;6.00;;;;;;;;;;5093862;28;20024;-84
2023/08/05 11:01:09;;;;;;;9.02;5.82;;;;;;;;;;5093777;28;20058;-85
2023/08/05 11:03:43;;;;;;;8.73;6.60;;;;;;;;;;5093412;28;20027;-84
2023/08/05 11:06:10;;;;;;;15.80;7.53;;;;;;;;;;5093401;28;20068;-83
2023/08/05 11:08:37;;;;;;;10.82;7.18;;;;;;;;;;5093495;28;20043;-85
2023/08/05 11:11:04;;;;;;;6.95;5.60;;;;;;;;;;5093984;28;20032;-86
2023/08/05 11:13:33;;;;;;;7.28;5.80;;;;;;;;;;5094872;28;20051;-86
2023/08/05 11:16:03;;;;;;;8.85;6.60;;;;;;;;;;5093928;28;20024;-87
2023/08/05 11:18:30;;;;;;;7.93;6.90;;;;;;;;;;5093796;28;20016;-85
2023/08/05 11:20:57;;;;;;;11.80;8.10;;;;;;;;;;5093887;28;20016;-86
2023/08/05 11:23:24;;;;;;;9.02;7.55;;;;;;;;;;5093475;28;20024;-85
2023/08/05 11:25:50;;;;;;;9.73;6.85;;;;;;;;;;5093237;28;20031;-87
2023/08/05 11:28:16;;;;;;;9.73;6.65;;;;;;;;;;5093563;28;20027;-87
2023/08/05 11:30:43;;;;;;;11.10;6.97;;;;;;;;;;5093519;28;20111;-87
2023/08/05 11:33:09;;;;;;;9.75;6.15;;;;;;;;;;5093427;28;20043;-87
2023/08/05 11:35:42;;;;;;;8.10;7.25;;;;;;;;;;5093196;28;20020;-86
2023/08/05 11:38:09;;;;;;;11.75;8.23;;;;;;;;;;5092817;28;20016;-85
2023/08/05 11:40:40;;;;;;;10.75;6.75;;;;;;;;;;5093050;28;20051;-87
2023/08/05 11:43:06;;;;;;;11.43;6.63;;;;;;;;;;5093563;28;20023;-88
2023/08/05 11:45:33;;;;;;;6.97;5.68;;;;;;;;;;5093197;28;20109;-87
2023/08/05 11:47:58;;;;;;;9.07;7.97;;;947.90;1715.20;;;;;;5093101;28;20031;-87
2023/08/05 11:50:36;;;;;;;11.65;7.65;;;947.90;1715.20;;;;;;5093609;28;20028;-87
2023/08/05 11:53:03;;;;;;;9.50;6.03;;;972.90;1715.20;;;;;;5093572;28;20091;-86
2023/08/05 11:55:33;;;;;;;9.20;5.47;;;;;;;;;;5093604;28;20126;-86
2023/08/05 11:58:03;;;;;;;7.32;5.50;;;948.10;1638.40;;;;;;5116243;28;20008;-87
2023/08/05 12:00:29;;;;;;;10.55;5.80;;;947.80;1638.40;;;;;;5102075;28;20055;-86
2023/08/05 12:02:55;;;;;;;9.23;5.90;;;948.00;1638.40;;;;;;5101542;28;20087;-86
2023/08/05 12:05:22;;;;;;;6.57;5.68;;;972.80;1664.00;;;;;;5094795;28;20039;-87
2023/08/05 12:07:48;;;;;;;9.35;6.47;;;947.90;1664.00;;;;;;5094678;28;20051;-86
2023/08/05 12:10:17;;;;;;;8.52;6.32;;;947.60;1689.60;;;;;;5096753;28;20460;-86
2023/08/05 12:12:48;;;;;;;7.55;6.28;;;947.30;1715.20;;;;;;5095340;28;20039;-87
2023/08/05 12:15:19;;;;;;;8.20;6.40;;;922.50;1740.80;;;;;;5093026;28;20031;-87
2023/08/05 12:17:50;;;;;;;8.02;6.65;;;922.20;1766.40;;;;;;5092881;28;20032;-88
2023/08/05 12:20:29;;;;;;;9.83;5.93;;;922.50;1740.80;;;;;;5092718;28;20446;-87
2023/08/05 12:22:55;;;;;;;8.90;5.97;;;947.50;1740.80;;;;;;5092971;28;20020;-87
2023/08/05 12:25:22;;;;;;;11.02;7.03;;;973.20;1740.80;;;;;;5092858;28;20093;-86
2023/08/05 12:27:48;;;;;;;8.98;5.75;;;948.10;1689.60;;;;;;5092868;28;20028;-88
2023/08/05 12:30:15;;;;;;;10.93;6.70;;;972.90;1715.20;;;;;;5092839;28;20034;-85
2023/08/05 12:32:40;;;;;;;8.77;6.28;;;973.00;1715.20;;;;;;5092638;28;20028;-85
2023/08/05 12:35:08;;;;;;;11.75;6.97;;;973.00;1740.80;;;;;;5092677;28;20073;-84